createdAt,value
2023-02-18T00:00:14.674Z,24
2023-02-18T00:01:14.138Z,24
2023-02-18T00:02:15.131Z,25
2023-02-18T00:03:14.875Z,25
2023-02-18T00:04:14.383Z,25
2023-02-18T00:05:14.084Z,25
2023-02-18T00:06:15.576Z,25
2023-02-18T00:07:14.341Z,25
2023-02-18T00:08:14.326Z,25
2023-02-18T00:09:15.087Z,25
2023-02-18T00:10:14.720Z,25
2023-02-18T00:11:14.354Z,25
2023-02-18T00:12:14.143Z,25
2023-02-18T00:13:14.859Z,25
2023-02-18T00:14:14.597Z,25
2023-02-18T00:15:14.235Z,25
2023-02-18T00:17:14.674Z,24
2023-02-18T00:18:14.509Z,24
2023-02-18T00:19:14.991Z,24
2023-02-18T00:20:14.438Z,24
2023-02-18T00:21:14.372Z,24
2023-02-18T00:22:13.890Z,24
2023-02-18T00:23:14.962Z,24
2023-02-18T00:24:14.652Z,24
2023-02-18T00:25:14.633Z,24
2023-02-18T00:26:15.180Z,24
2023-02-18T00:27:14.769Z,24
2023-02-18T00:28:14.420Z,24
2023-02-18T00:29:14.290Z,24
2023-02-18T00:30:15.094Z,24
2023-02-18T00:31:15.348Z,24
2023-02-18T00:32:14.501Z,20
2023-02-18T00:33:14.241Z,20
2023-02-18T00:35:14.865Z,20
2023-02-18T00:36:15.077Z,20
2023-02-18T00:37:14.433Z,20
2023-02-18T00:38:14.244Z,20
2023-02-18T00:39:14.816Z,20
2023-02-18T00:40:14.397Z,20
2023-02-18T00:41:14.279Z,20
2023-02-18T00:42:14.105Z,20
2023-02-18T00:43:14.559Z,20
2023-02-18T00:44:14.222Z,20
2023-02-18T00:45:13.950Z,20
2023-02-18T00:46:15.452Z,20
2023-02-18T00:47:14.718Z,33
2023-02-18T00:48:14.430Z,33
2023-02-18T00:49:14.108Z,33
2023-02-18T00:50:14.826Z,33
2023-02-18T00:51:14.705Z,33
2023-02-18T00:52:14.549Z,33
2023-02-18T00:53:14.242Z,33
2023-02-18T00:54:15.023Z,33
2023-02-18T00:55:14.589Z,33
2023-02-18T00:56:15.476Z,33
2023-02-18T00:57:14.093Z,33
2023-02-18T00:58:14.875Z,33
2023-02-18T00:59:14.582Z,33
2023-02-18T01:00:14.394Z,33
2023-02-18T01:02:14.768Z,33
2023-02-18T01:03:14.300Z,33
2023-02-18T01:04:14.078Z,33
2023-02-18T01:05:14.841Z,33
2023-02-18T01:06:14.864Z,33
2023-02-18T01:07:13.914Z,33
2023-02-18T01:08:14.531Z,33
2023-02-18T01:09:14.341Z,33
2023-02-18T01:10:14.042Z,33
2023-02-18T01:11:14.854Z,33
2023-02-18T01:12:14.472Z,33
2023-02-18T01:13:14.176Z,33
2023-02-18T01:14:14.699Z,33
2023-02-18T01:15:14.690Z,33
2023-02-18T01:17:13.991Z,23
2023-02-18T01:18:14.768Z,23
2023-02-18T01:19:14.441Z,23
2023-02-18T01:20:14.038Z,23
2023-02-18T01:21:14.992Z,23
2023-02-18T01:22:14.808Z,23
2023-02-18T01:23:14.331Z,23
2023-02-18T01:24:14.241Z,23
2023-02-18T01:25:14.875Z,23
2023-02-18T01:26:15.866Z,23
2023-02-18T01:27:14.397Z,23
2023-02-18T01:28:14.237Z,23
2023-02-18T01:29:15.122Z,23
2023-02-18T01:30:15.020Z,23
2023-02-18T01:31:15.659Z,23
2023-02-18T01:32:15.664Z,30
2023-02-18T01:33:14.186Z,30
2023-02-18T01:34:15.064Z,30
2023-02-18T01:35:14.655Z,30
2023-02-18T01:36:15.476Z,30
2023-02-18T01:37:15.011Z,30
2023-02-18T01:38:14.678Z,30
2023-02-18T01:39:14.049Z,30
2023-02-18T01:40:14.118Z,30
2023-02-18T01:41:14.786Z,30
2023-02-18T01:42:14.372Z,30
2023-02-18T01:43:14.203Z,30
2023-02-18T01:44:14.844Z,30
2023-02-18T01:45:14.203Z,30
2023-02-18T01:46:15.694Z,30
2023-02-18T01:47:14.743Z,28
2023-02-18T01:48:14.732Z,28
2023-02-18T01:49:14.166Z,28
2023-02-18T01:50:14.624Z,28
2023-02-18T01:51:14.318Z,28
2023-02-18T01:52:14.120Z,28
2023-02-18T01:53:15.009Z,28
2023-02-18T01:54:14.748Z,28
2023-02-18T01:55:14.292Z,28
2023-02-18T01:56:14.948Z,28
2023-02-18T01:57:14.690Z,28
2023-02-18T01:58:14.364Z,28
2023-02-18T01:59:14.116Z,28
2023-02-18T02:00:14.573Z,28
2023-02-18T02:01:14.616Z,28
2023-02-18T02:02:15.330Z,23
2023-02-18T02:03:14.457Z,23
2023-02-18T02:04:14.334Z,23
2023-02-18T02:05:14.077Z,23
2023-02-18T02:06:15.594Z,23
2023-02-18T02:07:14.466Z,23
2023-02-18T02:08:14.252Z,23
2023-02-18T02:09:14.079Z,23
2023-02-18T02:10:14.975Z,23
2023-02-18T02:11:14.649Z,23
2023-02-18T02:12:14.348Z,23
2023-02-18T02:13:14.760Z,23
2023-02-18T02:14:14.768Z,23
2023-02-18T02:15:14.476Z,23
2023-02-18T02:16:15.285Z,23
2023-02-18T02:17:14.923Z,15
2023-02-18T02:18:14.373Z,15
2023-02-18T02:19:14.256Z,15
2023-02-18T02:20:14.102Z,15
2023-02-18T02:21:14.678Z,15
2023-02-18T02:22:14.558Z,15
2023-02-18T02:23:14.182Z,15
2023-02-18T02:24:13.936Z,15
2023-02-18T02:25:14.965Z,15
2023-02-18T02:26:15.199Z,15
2023-02-18T02:28:14.606Z,15
2023-02-18T02:29:14.346Z,15
2023-02-18T02:30:14.651Z,15
2023-02-18T02:31:14.748Z,15
2023-02-18T02:32:14.711Z,21
2023-02-18T02:33:14.491Z,21
2023-02-18T02:34:14.091Z,21
2023-02-18T02:35:14.792Z,21
2023-02-18T02:36:15.455Z,21
2023-02-18T02:37:14.164Z,21
2023-02-18T02:38:14.890Z,21
2023-02-18T02:39:14.391Z,21
2023-02-18T02:40:14.346Z,21
2023-02-18T02:41:14.986Z,21
2023-02-18T02:42:14.605Z,21
2023-02-18T02:43:14.490Z,21
2023-02-18T02:44:14.021Z,21
2023-02-18T02:45:14.711Z,21
2023-02-18T02:46:15.512Z,21
2023-02-18T02:47:13.938Z,19
2023-02-18T02:48:14.719Z,19
2023-02-18T02:49:14.419Z,19
2023-02-18T02:50:14.266Z,19
2023-02-18T02:51:14.772Z,19
2023-02-18T02:52:14.737Z,19
2023-02-18T02:54:14.128Z,19
2023-02-18T02:55:14.786Z,19
2023-02-18T02:56:15.284Z,19
2023-02-18T02:57:14.403Z,19
2023-02-18T02:59:14.888Z,19
2023-02-18T03:00:14.736Z,19
2023-02-18T03:01:15.145Z,19
2023-02-18T03:02:14.303Z,31
2023-02-18T03:03:14.503Z,31
2023-02-18T03:04:14.736Z,31
2023-02-18T03:05:14.511Z,31
2023-02-18T03:06:15.032Z,31
2023-02-18T03:07:13.929Z,31
2023-02-18T03:08:14.835Z,31
2023-02-18T03:09:14.233Z,31
2023-02-18T03:10:15.037Z,31
2023-02-18T03:11:14.720Z,31
2023-02-18T03:12:14.383Z,31
2023-02-18T03:13:13.906Z,31
2023-02-18T03:14:14.878Z,31
2023-02-18T03:15:14.622Z,31
2023-02-18T03:16:15.424Z,31
2023-02-18T03:17:14.898Z,38
2023-02-18T03:18:14.432Z,38
2023-02-18T03:19:14.224Z,38
2023-02-18T03:20:14.896Z,38
2023-02-18T03:21:14.287Z,38
2023-02-18T03:22:14.233Z,38
2023-02-18T03:23:14.859Z,38
2023-02-18T03:24:14.857Z,38
2023-02-18T03:25:14.298Z,38
2023-02-18T03:26:15.096Z,38
2023-02-18T03:27:14.869Z,38
2023-02-18T03:28:14.635Z,38
2023-02-18T03:29:14.293Z,38
2023-02-18T03:30:14.498Z,38
2023-02-18T03:31:14.758Z,38
2023-02-18T03:32:14.529Z,30
2023-02-18T03:33:14.820Z,30
2023-02-18T03:34:14.706Z,30
2023-02-18T03:35:14.513Z,30
2023-02-18T03:36:15.003Z,30
2023-02-18T03:37:14.983Z,30
2023-02-18T03:38:14.562Z,30
2023-02-18T03:39:14.210Z,30
2023-02-18T03:40:14.232Z,30
2023-02-18T03:41:14.658Z,30
2023-02-18T03:42:14.667Z,30
2023-02-18T03:43:14.527Z,30
2023-02-18T03:44:14.246Z,30
2023-02-18T03:45:15.136Z,30
2023-02-18T03:47:14.195Z,23
2023-02-18T03:48:14.680Z,23
2023-02-18T03:49:14.644Z,23
2023-02-18T03:50:13.893Z,23
2023-02-18T03:51:14.937Z,23
2023-02-18T03:52:14.662Z,23
2023-02-18T03:53:14.436Z,23
2023-02-18T03:54:14.105Z,23
2023-02-18T03:55:14.889Z,23
2023-02-18T03:56:15.472Z,23
2023-02-18T03:57:13.875Z,23
2023-02-18T03:58:14.840Z,23
2023-02-18T03:59:14.657Z,23
2023-02-18T04:00:14.185Z,23
2023-02-18T04:01:14.618Z,23
2023-02-18T04:02:14.045Z,19
2023-02-18T04:03:14.989Z,19
2023-02-18T04:04:14.890Z,19
2023-02-18T04:05:14.251Z,19
2023-02-18T04:06:15.732Z,19
2023-02-18T04:07:14.686Z,19
2023-02-18T04:08:14.347Z,19
2023-02-18T04:09:14.259Z,19
2023-02-18T04:10:14.831Z,19
2023-02-18T04:11:14.813Z,19
2023-02-18T04:12:14.497Z,19
2023-02-18T04:13:14.222Z,19
2023-02-18T04:14:14.963Z,19
2023-02-18T04:15:14.785Z,19
2023-02-18T04:16:15.138Z,19
2023-02-18T04:17:14.988Z,18
2023-02-18T04:18:14.678Z,18
2023-02-18T04:19:14.316Z,18
2023-02-18T04:20:14.016Z,18
2023-02-18T04:21:14.870Z,18
2023-02-18T04:22:14.573Z,18
2023-02-18T04:23:14.439Z,18
2023-02-18T04:24:14.062Z,18
2023-02-18T04:25:14.854Z,18
2023-02-18T04:26:15.798Z,18
2023-02-18T04:27:14.954Z,18
2023-02-18T04:28:15.124Z,18
2023-02-18T04:29:14.670Z,18
2023-02-18T04:30:16.268Z,18
2023-02-18T04:31:14.648Z,18
2023-02-18T04:32:14.774Z,20
2023-02-18T04:33:14.162Z,20
2023-02-18T04:34:15.028Z,20
2023-02-18T04:35:14.682Z,20
2023-02-18T04:36:15.157Z,20
2023-02-18T04:37:14.378Z,20
2023-02-18T04:38:14.991Z,20
2023-02-18T04:39:14.614Z,20
2023-02-18T04:40:14.392Z,20
2023-02-18T04:41:14.052Z,20
2023-02-18T04:42:14.617Z,20
2023-02-18T04:43:14.392Z,20
2023-02-18T04:44:14.187Z,20
2023-02-18T04:45:13.999Z,20
2023-02-18T04:47:14.419Z,25
2023-02-18T04:48:14.068Z,25
2023-02-18T04:49:14.744Z,25
2023-02-18T04:50:14.420Z,25
2023-02-18T04:51:14.221Z,25
2023-02-18T04:52:14.869Z,25
2023-02-18T04:53:14.676Z,25
2023-02-18T04:54:14.380Z,25
2023-02-18T04:55:14.165Z,25
2023-02-18T04:56:15.080Z,25
2023-02-18T04:57:14.510Z,25
2023-02-18T04:58:14.290Z,25
2023-02-18T04:59:14.936Z,25
2023-02-18T05:00:14.672Z,25
2023-02-18T05:01:14.868Z,25
2023-02-18T05:02:14.006Z,26
2023-02-18T05:03:14.755Z,26
2023-02-18T05:04:14.690Z,26
2023-02-18T05:05:14.345Z,26
2023-02-18T05:06:15.760Z,26
2023-02-18T05:07:14.726Z,26
2023-02-18T05:08:14.369Z,26
2023-02-18T05:09:14.133Z,26
2023-02-18T05:10:14.942Z,26
2023-02-18T05:11:14.533Z,26
2023-02-18T05:12:14.227Z,26
2023-02-18T05:13:14.140Z,26
2023-02-18T05:14:14.786Z,26
2023-02-18T05:15:14.511Z,26
2023-02-18T05:16:15.979Z,26
2023-02-18T05:17:14.689Z,26
2023-02-18T05:18:14.748Z,26
2023-02-18T05:19:14.435Z,26
2023-02-18T05:21:15.056Z,26
2023-02-18T05:22:14.458Z,26
2023-02-18T05:23:14.494Z,26
2023-02-18T05:24:14.163Z,26
2023-02-18T05:25:15.028Z,26
2023-02-18T05:26:15.772Z,26
2023-02-18T05:27:14.637Z,26
2023-02-18T05:28:14.333Z,26
2023-02-18T05:29:14.887Z,26
2023-02-18T05:30:14.915Z,26
2023-02-18T05:31:15.244Z,26
2023-02-18T05:32:14.516Z,31
2023-02-18T05:33:14.946Z,31
2023-02-18T05:34:14.638Z,31
2023-02-18T05:35:14.215Z,31
2023-02-18T05:36:15.605Z,31
2023-02-18T05:37:14.690Z,31
2023-02-18T05:38:14.294Z,31
2023-02-18T05:39:13.986Z,31
2023-02-18T05:40:14.746Z,31
2023-02-18T05:41:14.381Z,31
2023-02-18T05:43:14.817Z,31
2023-02-18T05:44:14.445Z,31
2023-02-18T05:45:14.048Z,31
2023-02-18T05:46:15.737Z,31
2023-02-18T05:48:14.133Z,24
2023-02-18T05:49:14.626Z,24
2023-02-18T05:50:14.496Z,24
2023-02-18T05:51:14.070Z,24
2023-02-18T05:52:14.806Z,24
2023-02-18T05:53:16.695Z,24
2023-02-18T05:54:14.288Z,24
2023-02-18T05:55:14.105Z,24
2023-02-18T05:56:15.259Z,24
2023-02-18T05:57:14.751Z,24
2023-02-18T05:58:14.270Z,24
2023-02-18T05:59:15.052Z,24
2023-02-18T06:00:14.884Z,24
2023-02-18T06:01:14.145Z,24
2023-02-18T06:02:14.902Z,17
2023-02-18T06:03:14.700Z,17
2023-02-18T06:04:14.523Z,17
2023-02-18T06:05:14.270Z,17
2023-02-18T06:07:14.556Z,17
2023-02-18T06:08:14.266Z,17
2023-02-18T06:09:15.022Z,17
2023-02-18T06:10:14.523Z,17
2023-02-18T06:11:14.374Z,17
2023-02-18T06:12:13.998Z,17
2023-02-18T06:13:14.808Z,17
2023-02-18T06:14:14.294Z,17
2023-02-18T06:15:15.032Z,17
2023-02-18T06:17:14.364Z,18
2023-02-18T06:18:14.024Z,18
2023-02-18T06:19:14.770Z,18
2023-02-18T06:20:14.779Z,18
2023-02-18T06:21:14.436Z,18
2023-02-18T06:22:14.048Z,18
2023-02-18T06:24:14.481Z,18
2023-02-18T06:25:14.295Z,18
2023-02-18T06:27:14.611Z,18
2023-02-18T06:28:14.535Z,18
2023-02-18T06:29:13.955Z,18
2023-02-18T06:30:15.300Z,18
2023-02-18T06:31:15.806Z,18
2023-02-18T06:32:15.646Z,23
2023-02-18T06:33:14.461Z,23
2023-02-18T06:34:14.186Z,23
2023-02-18T06:35:14.981Z,23
2023-02-18T06:37:14.443Z,23
2023-02-18T06:38:13.882Z,23
2023-02-18T06:39:14.630Z,23
2023-02-18T06:40:14.476Z,23
2023-02-18T06:41:14.332Z,23
2023-02-18T06:42:14.929Z,23
2023-02-18T06:43:14.683Z,23
2023-02-18T06:44:14.491Z,23
2023-02-18T06:45:14.216Z,23
2023-02-18T06:46:15.627Z,23
2023-02-18T06:47:14.569Z,17
2023-02-18T06:48:14.293Z,17
2023-02-18T06:49:14.095Z,17
2023-02-18T06:50:15.117Z,17
2023-02-18T06:51:14.729Z,17
2023-02-18T06:52:14.567Z,17
2023-02-18T06:53:14.126Z,17
2023-02-18T06:54:14.964Z,17
2023-02-18T06:55:14.609Z,17
2023-02-18T06:56:14.625Z,17
2023-02-18T06:57:14.313Z,17
2023-02-18T06:58:14.852Z,17
2023-02-18T06:59:14.846Z,17
2023-02-18T07:00:14.600Z,17
2023-02-18T07:01:15.473Z,17
2023-02-18T07:02:14.641Z,23
2023-02-18T07:03:14.335Z,23
2023-02-18T07:04:14.373Z,23
2023-02-18T07:05:13.938Z,23
2023-02-18T07:06:15.253Z,23
2023-02-18T07:07:14.185Z,23
2023-02-18T07:08:14.969Z,23
2023-02-18T07:09:14.641Z,23
2023-02-18T07:10:14.292Z,23
2023-02-18T07:11:14.784Z,23
2023-02-18T07:12:14.769Z,23
2023-02-18T07:13:14.480Z,23
2023-02-18T07:15:14.930Z,23
2023-02-18T07:16:14.844Z,23
2023-02-18T07:17:14.815Z,28
2023-02-18T07:18:14.540Z,28
2023-02-18T07:19:14.969Z,28
2023-02-18T07:20:14.846Z,28
2023-02-18T07:21:14.452Z,28
2023-02-18T07:22:14.386Z,28
2023-02-18T07:23:14.014Z,28
2023-02-18T07:24:14.787Z,28
2023-02-18T07:25:14.426Z,28
2023-02-18T07:26:15.216Z,28
2023-02-18T07:27:14.839Z,28
2023-02-18T07:28:14.422Z,28
2023-02-18T07:29:13.981Z,28
2023-02-18T07:30:15.189Z,28
2023-02-18T07:31:15.474Z,28
2023-02-18T07:32:14.813Z,21
2023-02-18T07:34:14.924Z,21
2023-02-18T07:35:14.553Z,21
2023-02-18T07:36:15.330Z,21
2023-02-18T07:37:14.150Z,21
2023-02-18T07:38:14.536Z,21
2023-02-18T07:39:14.662Z,21
2023-02-18T07:40:14.290Z,21
2023-02-18T07:41:14.970Z,21
2023-02-18T07:42:14.674Z,21
2023-02-18T07:43:14.126Z,21
2023-02-18T07:44:14.874Z,21
2023-02-18T07:45:14.793Z,21
2023-02-18T07:47:14.711Z,24
2023-02-18T07:48:14.271Z,24
2023-02-18T07:49:15.025Z,24
2023-02-18T07:50:14.758Z,24
2023-02-18T07:51:14.164Z,24
2023-02-18T07:52:16.050Z,24
2023-02-18T07:53:14.585Z,24
2023-02-18T07:54:14.353Z,24
2023-02-18T07:55:14.025Z,24
2023-02-18T07:56:15.356Z,24
2023-02-18T07:57:14.477Z,24
2023-02-18T07:58:14.111Z,24
2023-02-18T07:59:14.828Z,24
2023-02-18T08:00:14.378Z,24
2023-02-18T08:01:15.091Z,24
2023-02-18T08:02:15.036Z,23
2023-02-18T08:03:14.471Z,23
2023-02-18T08:04:14.490Z,23
2023-02-18T08:05:14.667Z,23
2023-02-18T08:06:15.420Z,23
2023-02-18T08:07:14.145Z,23
2023-02-18T08:08:14.046Z,23
2023-02-18T08:09:14.573Z,23
2023-02-18T08:10:14.340Z,23
2023-02-18T08:11:30.132Z,23
2023-02-18T08:12:14.952Z,23
2023-02-18T08:13:14.743Z,23
2023-02-18T08:14:14.225Z,23
2023-02-18T08:15:14.004Z,23
2023-02-18T08:16:15.894Z,23
2023-02-18T08:17:14.560Z,31
2023-02-18T08:18:14.390Z,31
2023-02-18T08:19:14.079Z,31
2023-02-18T08:20:15.079Z,31
2023-02-18T08:21:14.619Z,31
2023-02-18T08:22:14.583Z,31
2023-02-18T08:23:13.930Z,31
2023-02-18T08:24:15.053Z,31
2023-02-18T08:25:32.736Z,31
2023-02-18T08:26:15.711Z,31
2023-02-18T08:27:14.674Z,31
2023-02-18T08:28:14.273Z,31
2023-02-18T08:29:14.857Z,31
2023-02-18T08:30:15.113Z,31
2023-02-18T08:31:15.079Z,31
2023-02-18T08:32:15.154Z,37
2023-02-18T08:33:14.610Z,37
2023-02-18T08:34:14.288Z,37
2023-02-18T08:35:14.821Z,37
2023-02-18T08:36:15.183Z,37
2023-02-18T08:37:14.408Z,37
2023-02-18T08:38:14.540Z,37
2023-02-18T08:39:14.448Z,37
2023-02-18T08:40:14.285Z,37
2023-02-18T08:42:14.626Z,37
2023-02-18T08:43:14.192Z,37
2023-02-18T08:44:15.008Z,37
2023-02-18T08:45:14.572Z,37
2023-02-18T08:46:40.081Z,37
2023-02-18T08:48:29.121Z,27
2023-02-18T08:51:18.386Z,27
2023-02-18T09:03:14.678Z,31
2023-02-18T09:11:15.572Z,31
2023-02-18T09:14:14.429Z,31
2023-02-18T09:26:14.231Z,27
2023-02-18T09:37:14.562Z,33
2023-02-18T09:50:14.252Z,27
2023-02-18T09:53:14.392Z,27
2023-02-18T10:01:15.499Z,27
2023-02-18T10:13:14.250Z,35
2023-02-18T10:20:19.057Z,33
2023-02-18T10:29:14.173Z,33
2023-02-18T11:12:21.189Z,30
2023-02-18T11:15:13.752Z,30
2023-02-18T11:36:14.184Z,30
2023-02-18T11:38:14.186Z,27
2023-02-18T11:39:15.194Z,30
2023-02-18T11:51:16.435Z,38
2023-02-18T11:59:14.303Z,31
2023-02-18T12:00:14.214Z,31
2023-02-18T12:01:14.747Z,31
2023-02-18T12:11:15.082Z,32
2023-02-18T12:23:13.993Z,36
2023-02-18T12:24:14.731Z,36
2023-02-18T12:29:14.416Z,27
2023-02-18T13:32:14.273Z,28
2023-02-18T13:38:14.762Z,35
2023-02-18T13:44:14.149Z,25
2023-02-18T13:45:13.962Z,25
2023-02-18T14:01:14.895Z,25
2023-02-18T14:24:16.658Z,24
2023-02-18T14:25:14.269Z,24
2023-02-18T14:38:14.010Z,45
2023-02-18T14:40:14.713Z,45
2023-02-18T14:44:14.225Z,31
2023-02-18T14:49:14.267Z,25
2023-02-18T14:53:16.040Z,38
2023-02-18T14:57:13.916Z,25
2023-02-18T15:00:14.408Z,25
2023-02-18T15:31:19.626Z,27
2023-02-18T15:51:29.347Z,32
2023-02-18T15:55:14.276Z,30
2023-02-18T15:56:14.245Z,30
2023-02-18T16:13:14.648Z,30
2023-02-18T16:14:14.200Z,30
2023-02-18T16:25:14.351Z,37
2023-02-18T16:50:14.071Z,37
2023-02-18T16:51:14.955Z,37
2023-02-18T16:52:14.301Z,31
2023-02-18T16:53:14.400Z,31
2023-02-18T16:55:14.381Z,31
2023-02-18T16:57:14.356Z,39
2023-02-18T17:02:14.374Z,35
2023-02-18T17:03:14.121Z,35
2023-02-18T17:05:33.669Z,35
2023-02-18T17:07:14.514Z,33
2023-02-18T17:08:13.923Z,33
2023-02-18T17:14:14.252Z,21
2023-02-18T17:15:14.502Z,21
2023-02-18T17:17:14.440Z,21
2023-02-18T17:21:14.232Z,21
2023-02-18T17:24:14.158Z,23
2023-02-18T17:29:14.428Z,26
2023-02-18T17:31:14.502Z,26
2023-02-18T17:38:14.462Z,27
2023-02-18T17:42:14.256Z,24
2023-02-18T17:43:14.363Z,24
2023-02-18T17:47:14.359Z,21
2023-02-18T17:48:14.000Z,21
2023-02-18T17:49:14.995Z,21
2023-02-18T17:51:13.553Z,21
2023-02-18T17:52:14.398Z,20
2023-02-18T17:53:14.114Z,20
2023-02-18T17:58:14.249Z,20
2023-02-18T18:01:14.424Z,20
2023-02-18T18:04:14.340Z,18
2023-02-18T18:05:14.175Z,18
2023-02-18T18:07:13.827Z,24
2023-02-18T18:09:14.493Z,24
2023-02-18T18:10:14.261Z,24
2023-02-18T18:12:13.931Z,25
2023-02-18T18:13:14.940Z,25
2023-02-18T18:14:14.539Z,25
2023-02-18T18:15:14.512Z,25
2023-02-18T18:16:14.410Z,25
2023-02-18T18:17:14.116Z,19
2023-02-18T18:19:14.464Z,19
2023-02-18T18:20:14.159Z,19
2023-02-18T18:23:14.255Z,23
2023-02-18T18:24:14.382Z,23
2023-02-18T18:25:14.197Z,23
2023-02-18T18:26:14.434Z,23
2023-02-18T18:27:14.136Z,25
2023-02-18T18:28:14.825Z,25
2023-02-18T18:30:14.366Z,25
2023-02-18T18:35:14.383Z,18
2023-02-18T18:37:14.229Z,23
2023-02-18T18:39:14.271Z,23
2023-02-18T18:40:14.027Z,23
2023-02-18T18:42:13.956Z,30
2023-02-18T18:44:14.363Z,30
2023-02-18T18:48:14.085Z,23
2023-02-18T18:55:14.246Z,30
2023-02-18T18:56:14.403Z,30
2023-02-18T18:59:14.276Z,21
2023-02-18T19:05:14.504Z,18
2023-02-18T19:08:14.229Z,21
2023-02-18T19:13:14.247Z,20
2023-02-18T19:14:14.835Z,20
2023-02-18T19:15:14.484Z,20
2023-02-18T19:16:15.076Z,20
2023-02-18T19:17:14.348Z,20
2023-02-18T19:18:14.115Z,20
2023-02-18T19:20:14.467Z,20
2023-02-18T19:23:14.438Z,17
2023-02-18T19:24:14.103Z,17
2023-02-18T19:27:14.585Z,19
2023-02-18T19:28:14.140Z,19
2023-02-18T19:33:14.222Z,19
2023-02-18T19:38:14.319Z,19
2023-02-18T19:39:13.946Z,19
2023-02-18T19:42:14.132Z,12
2023-02-18T19:44:14.459Z,12
2023-02-18T19:45:14.123Z,12
2023-02-18T19:47:14.088Z,19
2023-02-18T19:49:14.202Z,19
2023-02-18T19:50:13.980Z,19
2023-02-18T19:51:15.334Z,27
2023-02-18T19:52:14.819Z,27
2023-02-18T19:54:14.294Z,27
2023-02-18T20:02:14.440Z,14
2023-02-18T20:03:14.304Z,14
2023-02-18T20:08:14.421Z,15
2023-02-18T20:09:14.081Z,15
2023-02-18T20:13:14.540Z,15
2023-02-18T20:14:14.276Z,15
2023-02-18T20:16:14.471Z,15
2023-02-18T20:17:14.268Z,15
2023-02-18T20:18:14.017Z,15
2023-02-18T20:20:14.516Z,15
2023-02-18T20:22:14.216Z,17
2023-02-18T20:24:14.360Z,17
2023-02-18T20:25:14.190Z,17
2023-02-18T20:26:15.024Z,17
2023-02-18T20:28:14.914Z,9
2023-02-18T20:33:14.496Z,13
2023-02-18T20:34:13.903Z,13
2023-02-18T20:36:14.344Z,13
2023-02-18T20:37:14.997Z,14
2023-02-18T20:39:28.083Z,14
2023-02-18T20:40:13.787Z,14
2023-02-18T20:42:27.725Z,15
2023-02-18T20:44:14.224Z,15
2023-02-18T20:47:14.339Z,15
2023-02-18T20:50:14.327Z,15
2023-02-18T20:53:14.465Z,13
2023-02-18T20:57:14.145Z,11
2023-02-18T20:59:14.456Z,11
2023-02-18T21:00:14.192Z,11
2023-02-18T21:02:14.185Z,14
2023-02-18T21:04:14.292Z,14
2023-02-18T21:05:13.983Z,14
2023-02-18T21:06:13.948Z,14
2023-02-18T21:09:14.413Z,11
2023-02-18T21:10:14.161Z,11
2023-02-18T21:13:14.655Z,13
2023-02-18T21:14:14.398Z,13
2023-02-18T21:15:14.157Z,13
2023-02-18T21:18:14.366Z,19
2023-02-18T21:19:14.125Z,19
2023-02-18T21:22:13.907Z,18
2023-02-18T21:23:14.805Z,18
2023-02-18T21:25:14.368Z,18
2023-02-18T21:26:14.113Z,18
2023-02-18T21:29:16.090Z,13
2023-02-18T21:34:14.428Z,13
2023-02-18T21:35:13.967Z,13
2023-02-18T21:38:14.447Z,12
2023-02-18T21:39:14.208Z,12
2023-02-18T21:40:14.992Z,12
2023-02-18T21:43:14.381Z,12
2023-02-18T21:44:14.176Z,12
2023-02-18T21:47:14.378Z,11
2023-02-18T21:48:14.152Z,11
2023-02-18T21:53:14.248Z,7
2023-02-18T21:55:14.452Z,7
2023-02-18T22:00:31.042Z,12
2023-02-18T22:02:14.373Z,11
2023-02-18T22:03:14.211Z,11
2023-02-18T22:08:14.343Z,9
2023-02-18T22:10:14.269Z,9
2023-02-18T22:12:15.011Z,8
2023-02-18T22:13:14.008Z,8
2023-02-18T22:14:14.078Z,8
2023-02-18T22:17:14.482Z,12
2023-02-18T22:18:14.180Z,12
2023-02-18T22:22:14.422Z,12
2023-02-18T22:23:14.112Z,12
2023-02-18T22:24:14.553Z,12
2023-02-18T22:25:14.687Z,12
2023-02-18T22:26:14.349Z,12
2023-02-18T22:29:14.550Z,13
2023-02-18T22:32:15.324Z,17
2023-02-18T22:35:16.373Z,17
2023-02-18T22:36:14.839Z,17
2023-02-18T22:37:14.419Z,14
2023-02-18T22:38:14.010Z,14
2023-02-18T22:39:15.105Z,14
2023-02-18T22:40:14.916Z,14
2023-02-18T22:43:13.948Z,18
2023-02-18T22:46:13.584Z,18
2023-02-18T23:02:14.039Z,15
2023-02-18T23:10:14.256Z,13
2023-02-18T23:11:15.160Z,13
2023-02-18T23:28:14.048Z,8
2023-02-18T23:36:14.398Z,9
2023-02-18T23:37:14.042Z,8
2023-02-18T23:39:14.458Z,8
2023-02-18T23:50:14.796Z,8
2023-02-18T23:54:14.082Z,7
